createdAt,value
2019-04-30T00:00:30.378Z,77.87
2019-04-30T00:01:28.975Z,77.56
2019-04-30T00:02:34.828Z,78.49
2019-04-30T00:03:29.962Z,78.28
2019-04-30T00:04:29.862Z,78.18
2019-04-30T00:05:29.930Z,78.18
2019-04-30T00:06:34.519Z,78.91
2019-04-30T00:07:29.912Z,78.39
2019-04-30T00:08:30.080Z,78.28
2019-04-30T00:09:29.896Z,78.08
2019-04-30T00:10:35.797Z,77.98
2019-04-30T00:11:29.870Z,77.87
2019-04-30T00:12:30.929Z,78.18
2019-04-30T00:13:29.846Z,78.39
2019-04-30T00:14:36.841Z,79.63
2019-04-30T00:15:29.830Z,78.28
2019-04-30T00:16:31.104Z,78.18
2019-04-30T00:17:29.803Z,78.08
2019-04-30T00:18:30.693Z,78.59
2019-04-30T00:19:29.782Z,77.98
2019-04-30T00:20:30.013Z,77.98
2019-04-30T00:21:29.763Z,78.08
2019-04-30T00:22:33.978Z,78.08
2019-04-30T00:23:30.923Z,78.18
2019-04-30T00:24:28.732Z,78.39
2019-04-30T00:25:28.750Z,77.87
2019-04-30T00:26:28.708Z,77.77
2019-04-30T00:27:30.313Z,78.18
2019-04-30T00:28:28.690Z,78.18
2019-04-30T00:29:31.041Z,78.49
2019-04-30T00:30:28.664Z,78.42
2019-04-30T00:31:28.659Z,79.36
2019-04-30T00:32:28.644Z,78.63
2019-04-30T00:33:28.636Z,78.94
2019-04-30T00:34:31.024Z,79.25
2019-04-30T00:35:29.611Z,78.84
2019-04-30T00:36:34.231Z,79.66
2019-04-30T00:37:29.590Z,79.87
2019-04-30T00:38:29.594Z,80.29
2019-04-30T00:39:28.568Z,80.39
2019-04-30T00:40:30.118Z,79.70
2019-04-30T00:41:30.266Z,80.01
2019-04-30T00:42:28.936Z,80.80
2019-04-30T00:43:28.529Z,80.11
2019-04-30T00:44:28.593Z,80.43
2019-04-30T00:45:28.505Z,80.22
2019-04-30T00:46:29.452Z,81.25
2019-04-30T00:47:28.486Z,81.15
2019-04-30T00:48:31.200Z,81.56
2019-04-30T00:49:28.466Z,81.56
2019-04-30T00:50:29.028Z,80.84
2019-04-30T00:51:28.447Z,80.74
2019-04-30T00:52:29.438Z,80.84
2019-04-30T00:53:29.424Z,81.05
2019-04-30T00:54:30.874Z,81.15
2019-04-30T00:55:28.399Z,81.05
2019-04-30T00:56:28.456Z,81.05
2019-04-30T00:57:28.376Z,80.63
2019-04-30T00:58:30.238Z,80.94
2019-04-30T00:59:28.356Z,80.01
2019-04-30T01:00:29.730Z,79.91
2019-04-30T01:01:28.335Z,80.32
2019-04-30T01:02:32.105Z,80.74
2019-04-30T01:03:28.317Z,80.43
2019-04-30T01:04:28.315Z,80.32
2019-04-30T01:05:28.292Z,80.01
2019-04-30T01:06:28.761Z,80.05
2019-04-30T01:07:28.272Z,80.63
2019-04-30T01:08:28.753Z,80.84
2019-04-30T01:09:28.255Z,80.77
2019-04-30T01:10:28.480Z,80.36
2019-04-30T01:11:28.226Z,80.32
2019-04-30T01:12:33.455Z,80.22
2019-04-30T01:13:29.204Z,80.32
2019-04-30T01:14:31.871Z,80.46
2019-04-30T01:15:29.173Z,80.57
2019-04-30T01:16:32.947Z,80.43
2019-04-30T01:17:29.968Z,81.29
2019-04-30T01:18:31.923Z,80.98
2019-04-30T01:19:30.646Z,80.77
2019-04-30T01:20:31.559Z,81.60
2019-04-30T01:21:28.554Z,80.88
2019-04-30T01:22:32.626Z,81.09
2019-04-30T01:23:29.636Z,81.49
2019-04-30T01:24:31.423Z,81.70
2019-04-30T01:25:28.815Z,81.60
2019-04-30T01:26:31.040Z,81.70
2019-04-30T01:27:28.412Z,81.54
2019-04-30T01:28:28.438Z,81.49
2019-04-30T01:29:31.122Z,81.91
2019-04-30T01:30:29.028Z,81.84
2019-04-30T01:31:33.018Z,82.15
2019-04-30T01:32:29.001Z,81.91
2019-04-30T01:33:34.386Z,81.95
2019-04-30T01:34:29.436Z,82.05
2019-04-30T01:35:32.454Z,82.01
2019-04-30T01:36:29.376Z,82.15
2019-04-30T01:37:29.594Z,82.15
2019-04-30T01:38:28.724Z,82.15
2019-04-30T01:39:31.567Z,81.84
2019-04-30T01:40:28.557Z,81.39
2019-04-30T01:41:31.296Z,81.39
2019-04-30T01:42:28.421Z,81.60
2019-04-30T01:43:31.569Z,82.15
2019-04-30T01:44:29.497Z,81.81
2019-04-30T01:45:31.493Z,81.74
2019-04-30T01:46:29.165Z,81.64
2019-04-30T01:47:34.816Z,81.64
2019-04-30T01:48:29.263Z,81.02
2019-04-30T01:49:30.074Z,80.91
2019-04-30T01:50:29.262Z,80.88
2019-04-30T01:51:28.576Z,81.29
2019-04-30T01:52:29.214Z,81.12
2019-04-30T01:53:28.780Z,81.19
2019-04-30T01:54:29.149Z,80.71
2019-04-30T01:55:29.366Z,80.67
2019-04-30T01:56:28.934Z,79.98
2019-04-30T01:57:29.265Z,80.05
2019-04-30T01:58:29.983Z,80.26
2019-04-30T01:59:29.134Z,80.36
2019-04-30T02:00:29.317Z,80.46
2019-04-30T02:01:28.604Z,80.19
2019-04-30T02:02:28.627Z,80.40
2019-04-30T02:03:29.193Z,80.50
2019-04-30T02:04:29.010Z,80.05
2019-04-30T02:05:28.780Z,80.46
2019-04-30T02:06:29.328Z,80.26
2019-04-30T02:07:28.734Z,79.74
2019-04-30T02:08:29.405Z,80.05
2019-04-30T02:09:28.651Z,79.63
2019-04-30T02:10:28.521Z,80.05
2019-04-30T02:11:28.840Z,79.63
2019-04-30T02:12:29.549Z,79.84
2019-04-30T02:13:31.186Z,79.77
2019-04-30T02:14:28.748Z,79.74
2019-04-30T02:15:29.155Z,79.98
2019-04-30T02:16:28.959Z,80.26
2019-04-30T02:17:29.213Z,80.40
2019-04-30T02:18:29.444Z,79.67
2019-04-30T02:19:28.774Z,79.33
2019-04-30T02:20:28.706Z,79.98
2019-04-30T02:21:27.482Z,79.67
2019-04-30T02:22:28.824Z,80.19
2019-04-30T02:23:29.531Z,80.67
2019-04-30T02:24:28.855Z,80.60
2019-04-30T02:25:29.361Z,80.40
2019-04-30T02:26:28.628Z,80.19
2019-04-30T02:27:29.469Z,80.08
2019-04-30T02:28:28.996Z,81.02
2019-04-30T02:29:27.395Z,81.23
2019-04-30T02:30:30.496Z,81.23
2019-04-30T02:31:27.382Z,81.64
2019-04-30T02:32:30.202Z,81.64
2019-04-30T02:33:30.346Z,81.33
2019-04-30T02:34:30.089Z,81.68
2019-04-30T02:35:28.830Z,81.68
2019-04-30T02:36:29.850Z,81.88
2019-04-30T02:37:29.972Z,81.88
2019-04-30T02:38:29.862Z,81.78
2019-04-30T02:39:30.128Z,82.19
2019-04-30T02:40:30.019Z,82.60
2019-04-30T02:41:29.293Z,82.60
2019-04-30T02:42:29.604Z,82.95
2019-04-30T02:43:29.869Z,83.26
2019-04-30T02:44:29.255Z,83.47
2019-04-30T02:45:29.851Z,82.34
2019-04-30T02:46:31.936Z,82.44
2019-04-30T02:47:30.215Z,82.65
2019-04-30T02:48:29.247Z,82.95
2019-04-30T02:49:29.963Z,83.26
2019-04-30T02:50:29.386Z,83.58
2019-04-30T02:51:29.522Z,84.72
2019-04-30T02:52:29.399Z,83.72
2019-04-30T02:53:29.240Z,83.72
2019-04-30T02:54:29.455Z,84.55
2019-04-30T02:55:29.610Z,84.13
2019-04-30T02:56:29.522Z,84.23
2019-04-30T02:57:29.794Z,84.03
2019-04-30T02:58:29.366Z,84.13
2019-04-30T02:59:29.893Z,84.13
2019-04-30T03:00:29.784Z,84.48
2019-04-30T03:01:30.290Z,84.69
2019-04-30T03:02:29.050Z,84.65
2019-04-30T03:03:29.804Z,84.28
2019-04-30T03:04:29.256Z,83.97
2019-04-30T03:05:27.024Z,84.80
2019-04-30T03:06:29.725Z,85.00
2019-04-30T03:07:29.370Z,84.38
2019-04-30T03:08:29.565Z,84.48
2019-04-30T03:09:29.515Z,84.90
2019-04-30T03:10:26.959Z,84.80
2019-04-30T03:11:29.852Z,84.80
2019-04-30T03:12:26.937Z,84.69
2019-04-30T03:13:29.716Z,84.48
2019-04-30T03:14:26.916Z,84.69
2019-04-30T03:15:29.607Z,84.59
2019-04-30T03:16:26.904Z,84.59
2019-04-30T03:17:29.285Z,84.44
2019-04-30T03:18:30.049Z,84.38
2019-04-30T03:19:29.339Z,84.28
2019-04-30T03:20:32.621Z,84.59
2019-04-30T03:21:29.046Z,84.03
2019-04-30T03:22:26.831Z,83.93
2019-04-30T03:23:29.225Z,84.07
2019-04-30T03:24:29.410Z,84.69
2019-04-30T03:25:29.661Z,84.07
2019-04-30T03:26:29.620Z,84.17
2019-04-30T03:27:26.779Z,84.59
2019-04-30T03:28:29.877Z,84.28
2019-04-30T03:29:26.758Z,84.28
2019-04-30T03:30:31.523Z,84.17
2019-04-30T03:31:32.031Z,84.48
2019-04-30T03:32:31.682Z,84.17
2019-04-30T03:33:32.207Z,84.28
2019-04-30T03:34:31.877Z,84.80
2019-04-30T03:35:31.726Z,84.28
2019-04-30T03:36:26.686Z,84.28
2019-04-30T03:37:26.673Z,84.48
2019-04-30T03:38:26.663Z,84.73
2019-04-30T03:39:26.648Z,84.69
2019-04-30T03:40:26.639Z,84.69
2019-04-30T03:41:26.636Z,85.04
2019-04-30T03:42:26.622Z,84.42
2019-04-30T03:43:26.608Z,84.83
2019-04-30T03:44:31.581Z,85.04
2019-04-30T03:45:30.049Z,84.83
2019-04-30T03:46:29.645Z,84.73
2019-04-30T03:47:26.569Z,84.31
2019-04-30T03:48:29.262Z,84.42
2019-04-30T03:49:26.542Z,84.31
2019-04-30T03:50:32.837Z,84.73
2019-04-30T03:51:29.783Z,84.11
2019-04-30T03:52:29.047Z,84.11
2019-04-30T03:53:26.503Z,83.86
2019-04-30T03:54:29.063Z,84.52
2019-04-30T03:55:26.479Z,84.52
2019-04-30T03:56:26.474Z,84.94
2019-04-30T03:57:26.457Z,84.52
2019-04-30T03:58:29.127Z,84.83
2019-04-30T03:59:26.437Z,84.52
2019-04-30T04:00:26.429Z,84.52
2019-04-30T04:01:26.416Z,84.94
2019-04-30T04:02:26.405Z,84.73
2019-04-30T04:03:26.396Z,84.73
2019-04-30T04:04:26.390Z,84.73
2019-04-30T04:05:26.374Z,84.42
2019-04-30T04:06:26.367Z,84.21
2019-04-30T04:07:26.355Z,84.52
2019-04-30T04:08:26.341Z,84.52
2019-04-30T04:09:26.333Z,84.73
2019-04-30T04:10:26.324Z,84.00
2019-04-30T04:11:26.309Z,84.28
2019-04-30T04:12:26.300Z,84.63
2019-04-30T04:13:26.316Z,84.31
2019-04-30T04:14:26.277Z,84.21
2019-04-30T04:15:26.271Z,84.00
2019-04-30T04:16:26.261Z,83.45
2019-04-30T04:17:26.245Z,83.55
2019-04-30T04:18:26.238Z,84.42
2019-04-30T04:19:26.225Z,84.59
2019-04-30T04:20:26.214Z,83.55
2019-04-30T04:21:26.210Z,84.48
2019-04-30T04:22:26.192Z,83.55
2019-04-30T04:23:26.186Z,83.24
2019-04-30T04:24:26.171Z,83.45
2019-04-30T04:25:26.161Z,83.65
2019-04-30T04:26:26.151Z,83.97
2019-04-30T04:27:26.149Z,83.65
2019-04-30T04:28:26.130Z,83.86
2019-04-30T04:29:26.118Z,83.45
2019-04-30T04:30:26.110Z,83.45
2019-04-30T04:31:26.099Z,83.20
2019-04-30T04:32:26.087Z,82.58
2019-04-30T04:33:26.090Z,82.48
2019-04-30T04:34:26.071Z,82.58
2019-04-30T04:35:26.054Z,82.48
2019-04-30T04:36:26.045Z,82.48
2019-04-30T04:37:26.070Z,82.79
2019-04-30T04:38:26.022Z,82.68
2019-04-30T04:39:26.017Z,82.58
2019-04-30T04:40:25.999Z,82.58
2019-04-30T04:41:25.990Z,83.00
2019-04-30T04:42:25.978Z,82.17
2019-04-30T04:43:25.969Z,82.48
2019-04-30T04:44:25.961Z,82.17
2019-04-30T04:45:25.951Z,81.85
2019-04-30T04:46:25.947Z,82.79
2019-04-30T04:47:25.928Z,82.13
2019-04-30T04:48:25.915Z,81.92
2019-04-30T04:49:25.909Z,81.61
2019-04-30T04:50:25.893Z,81.40
2019-04-30T04:51:34.370Z,81.82
2019-04-30T04:52:26.873Z,82.13
2019-04-30T04:53:25.863Z,82.13
2019-04-30T04:54:25.854Z,81.92
2019-04-30T04:55:25.845Z,81.20
2019-04-30T04:56:25.828Z,80.99
2019-04-30T04:57:25.824Z,80.22
2019-04-30T04:58:25.809Z,80.43
2019-04-30T04:59:25.805Z,80.22
2019-04-30T05:00:25.792Z,79.71
2019-04-30T05:01:25.775Z,80.12
2019-04-30T05:02:25.766Z,80.43
2019-04-30T05:03:25.755Z,79.98
2019-04-30T05:04:25.744Z,79.36
2019-04-30T05:05:25.737Z,79.57
2019-04-30T05:06:25.723Z,78.95
2019-04-30T05:07:25.713Z,79.16
2019-04-30T05:08:25.701Z,78.33
2019-04-30T05:09:25.691Z,78.50
2019-04-30T05:10:25.692Z,77.91
2019-04-30T05:11:25.669Z,78.19
2019-04-30T05:12:25.658Z,77.87
2019-04-30T05:13:25.648Z,78.08
2019-04-30T05:14:25.647Z,78.36
2019-04-30T05:15:25.627Z,77.67
2019-04-30T05:16:25.617Z,77.94
2019-04-30T05:17:25.606Z,77.43
2019-04-30T05:18:25.596Z,77.64
2019-04-30T05:19:25.587Z,77.33
2019-04-30T05:20:25.574Z,76.91
2019-04-30T05:21:25.563Z,77.08
2019-04-30T05:22:25.553Z,77.08
2019-04-30T05:23:25.540Z,76.87
2019-04-30T05:24:25.531Z,76.64
2019-04-30T05:25:25.519Z,76.64
2019-04-30T05:26:25.507Z,76.32
2019-04-30T05:27:25.498Z,75.91
2019-04-30T05:28:25.487Z,75.70
2019-04-30T05:29:25.478Z,75.09
2019-04-30T05:30:25.466Z,75.05
2019-04-30T05:31:25.454Z,74.53
2019-04-30T05:32:25.445Z,74.15
2019-04-30T05:33:25.433Z,73.71
2019-04-30T05:34:25.423Z,72.13
2019-04-30T05:35:25.411Z,71.20
2019-04-30T05:36:25.401Z,70.86
2019-04-30T05:37:25.391Z,69.86
2019-04-30T05:38:25.378Z,70.79
2019-04-30T05:39:25.370Z,70.79
2019-04-30T05:40:25.359Z,71.82
2019-04-30T05:41:25.350Z,71.03
2019-04-30T05:42:25.337Z,69.25
2019-04-30T05:43:25.326Z,69.15
2019-04-30T05:44:25.316Z,68.77
2019-04-30T05:45:25.305Z,69.18
2019-04-30T05:46:25.294Z,68.66
2019-04-30T05:47:25.285Z,69.49
2019-04-30T05:48:25.275Z,69.18
2019-04-30T05:49:25.266Z,69.49
2019-04-30T05:50:25.254Z,69.28
2019-04-30T05:51:25.244Z,69.42
2019-04-30T05:52:25.234Z,68.74
2019-04-30T05:53:25.220Z,68.94
2019-04-30T05:54:25.214Z,69.35
2019-04-30T05:55:25.196Z,68.53
2019-04-30T05:56:25.189Z,67.98
2019-04-30T05:57:25.177Z,67.33
2019-04-30T05:58:25.185Z,65.45
2019-04-30T05:59:25.155Z,65.32
2019-04-30T06:00:25.144Z,64.67
2019-04-30T06:01:25.133Z,63.31
2019-04-30T06:02:25.129Z,62.63
2019-04-30T06:03:30.160Z,61.99
2019-04-30T06:04:26.104Z,60.97
2019-04-30T06:05:25.090Z,60.84
2019-04-30T06:06:25.080Z,59.96
2019-04-30T06:07:25.068Z,59.39
2019-04-30T06:08:25.067Z,58.14
2019-04-30T06:09:33.238Z,57.84
2019-04-30T06:10:26.035Z,57.56
2019-04-30T06:11:25.026Z,57.99
2019-04-30T06:12:25.016Z,57.53
2019-04-30T06:13:25.007Z,56.04
2019-04-30T06:14:24.993Z,55.46
2019-04-30T06:15:24.984Z,55.97
2019-04-30T06:16:24.974Z,56.48
2019-04-30T06:17:24.960Z,56.17
2019-04-30T06:18:24.950Z,56.27
2019-04-30T06:19:24.938Z,56.40
2019-04-30T06:20:24.929Z,57.53
2019-04-30T06:21:24.922Z,56.33
2019-04-30T06:22:24.906Z,57.32
2019-04-30T06:23:24.904Z,56.40
2019-04-30T06:24:24.884Z,55.99
2019-04-30T06:25:32.477Z,57.73
2019-04-30T06:26:25.882Z,56.07
2019-04-30T06:27:24.873Z,56.04
2019-04-30T06:28:24.842Z,55.61
2019-04-30T06:29:24.834Z,54.97
2019-04-30T06:30:24.818Z,54.57
2019-04-30T06:31:32.232Z,54.44
2019-04-30T06:32:25.795Z,53.96
2019-04-30T06:33:24.790Z,53.01
2019-04-30T06:34:24.775Z,54.16
2019-04-30T06:35:24.764Z,53.96
2019-04-30T06:36:24.754Z,53.83
2019-04-30T06:37:24.751Z,53.01
2019-04-30T06:38:24.733Z,55.58
2019-04-30T06:39:24.729Z,54.24
2019-04-30T06:40:24.711Z,53.47
2019-04-30T06:41:24.701Z,51.74
2019-04-30T06:42:24.691Z,51.53
2019-04-30T06:43:24.679Z,52.35
2019-04-30T06:44:34.868Z,50.67
2019-04-30T06:45:25.656Z,51.07
2019-04-30T06:46:24.649Z,51.79
2019-04-30T06:47:32.738Z,52.83
2019-04-30T06:48:25.624Z,52.73
2019-04-30T06:49:24.617Z,52.60
2019-04-30T06:50:24.605Z,51.20
2019-04-30T06:51:24.592Z,51.20
2019-04-30T06:52:24.581Z,51.61
2019-04-30T06:53:24.572Z,53.24
2019-04-30T06:54:24.561Z,52.73
2019-04-30T06:55:24.549Z,51.40
2019-04-30T06:56:24.540Z,51.71
2019-04-30T06:57:24.528Z,52.83
2019-04-30T06:58:24.517Z,51.20
2019-04-30T06:59:24.507Z,51.71
2019-04-30T07:00:32.749Z,51.38
2019-04-30T07:01:25.487Z,51.40
2019-04-30T07:02:24.479Z,51.71
2019-04-30T07:03:24.466Z,52.29
2019-04-30T07:04:24.453Z,51.13
2019-04-30T07:05:24.442Z,49.48
2019-04-30T07:06:29.688Z,48.79
2019-04-30T07:07:36.254Z,51.20
2019-04-30T07:08:36.057Z,49.45
2019-04-30T07:09:26.663Z,49.48
2019-04-30T07:10:25.390Z,47.92
2019-04-30T07:11:24.377Z,49.35
2019-04-30T07:12:27.805Z,49.22
2019-04-30T07:13:25.356Z,48.92
2019-04-30T07:14:24.345Z,48.00
2019-04-30T07:15:24.337Z,48.82
2019-04-30T07:16:24.323Z,48.11
2019-04-30T07:17:24.312Z,48.82
2019-04-30T07:18:24.302Z,47.39
2019-04-30T07:19:32.961Z,46.93
2019-04-30T07:20:25.280Z,49.78
2019-04-30T07:21:24.270Z,47.72
2019-04-30T07:22:37.648Z,47.60
2019-04-30T07:23:25.248Z,46.89
2019-04-30T07:24:24.308Z,47.29
2019-04-30T07:25:24.234Z,47.37
2019-04-30T07:26:24.811Z,47.55
2019-04-30T07:27:24.436Z,46.66
2019-04-30T07:28:41.246Z,45.26
2019-04-30T07:29:25.195Z,47.50
2019-04-30T07:30:24.173Z,46.89
2019-04-30T07:31:24.166Z,47.75
2019-04-30T07:32:24.151Z,46.23
2019-04-30T07:33:24.142Z,45.32
2019-04-30T07:34:24.131Z,46.31
2019-04-30T07:35:24.121Z,46.31
2019-04-30T07:36:42.467Z,45.42
2019-04-30T07:37:25.098Z,44.89
2019-04-30T07:38:24.088Z,45.40
2019-04-30T07:39:29.255Z,46.21
2019-04-30T07:40:25.065Z,46.27
2019-04-30T07:41:24.057Z,45.46
2019-04-30T07:42:24.044Z,46.55
2019-04-30T07:43:24.034Z,45.51
2019-04-30T07:44:35.422Z,43.63
2019-04-30T07:45:25.662Z,45.46
2019-04-30T07:46:24.004Z,45.54
2019-04-30T07:47:24.020Z,45.31
2019-04-30T07:48:26.508Z,41.97
2019-04-30T07:49:23.975Z,43.18
2019-04-30T07:50:24.468Z,42.68
2019-04-30T07:51:24.725Z,43.29
2019-04-30T07:52:24.683Z,43.08
2019-04-30T07:53:23.934Z,43.81
2019-04-30T07:54:23.919Z,43.79
2019-04-30T07:55:23.908Z,45.21
2019-04-30T07:56:28.267Z,43.87
2019-04-30T07:57:24.885Z,42.25
2019-04-30T07:58:23.876Z,41.44
2019-04-30T07:59:23.865Z,42.54
2019-04-30T08:00:23.855Z,41.99
2019-04-30T08:01:23.844Z,41.87
2019-04-30T08:02:24.643Z,41.71
2019-04-30T08:03:24.068Z,40.49
2019-04-30T08:04:23.822Z,43.10
2019-04-30T08:05:23.809Z,41.18
2019-04-30T08:06:23.857Z,41.36
2019-04-30T08:07:23.815Z,41.97
2019-04-30T08:08:25.659Z,42.17
2019-04-30T08:09:23.762Z,39.02
2019-04-30T08:10:23.752Z,38.73
2019-04-30T08:11:26.321Z,40.73
2019-04-30T08:12:30.347Z,39.76
2019-04-30T08:13:25.244Z,40.66
2019-04-30T08:14:24.682Z,40.94
2019-04-30T08:15:23.701Z,39.24
2019-04-30T08:16:23.692Z,39.66
2019-04-30T08:17:23.686Z,39.26
2019-04-30T08:18:23.672Z,41.28
2019-04-30T08:19:23.661Z,41.24
2019-04-30T08:20:23.653Z,40.82
2019-04-30T08:21:23.640Z,38.98
2019-04-30T08:22:23.630Z,39.77
2019-04-30T08:23:34.031Z,38.34
2019-04-30T08:24:24.612Z,38.82
2019-04-30T08:25:23.599Z,38.04
2019-04-30T08:26:23.592Z,38.93
2019-04-30T08:27:23.581Z,36.99
2019-04-30T08:28:23.569Z,36.79
2019-04-30T08:29:23.565Z,37.68
2019-04-30T08:30:26.742Z,37.46
2019-04-30T08:31:23.539Z,37.56
2019-04-30T08:32:23.529Z,36.62
2019-04-30T08:33:23.521Z,36.25
2019-04-30T08:34:23.508Z,36.15
2019-04-30T08:35:23.503Z,36.47
2019-04-30T08:36:23.491Z,37.19
2019-04-30T08:37:23.477Z,36.27
2019-04-30T08:38:23.468Z,36.79
2019-04-30T08:39:23.458Z,36.52
2019-04-30T08:40:23.447Z,36.40
2019-04-30T08:41:23.439Z,36.10
2019-04-30T08:42:32.759Z,35.86
2019-04-30T08:43:24.416Z,36.04
2019-04-30T08:44:23.410Z,35.63
2019-04-30T08:45:23.399Z,35.43
2019-04-30T08:46:23.393Z,36.00
2019-04-30T08:47:23.395Z,35.08
2019-04-30T08:48:23.368Z,34.73
2019-04-30T08:49:23.647Z,33.23
2019-04-30T08:50:23.366Z,35.41
2019-04-30T08:51:23.350Z,32.20
2019-04-30T08:52:23.496Z,32.12
2019-04-30T08:53:29.291Z,33.55
2019-04-30T08:54:24.312Z,32.76
2019-04-30T08:55:23.300Z,33.86
2019-04-30T08:56:23.290Z,33.32
2019-04-30T08:57:23.279Z,34.24
2019-04-30T08:58:23.270Z,32.92
2019-04-30T08:59:23.261Z,33.59
2019-04-30T09:00:23.251Z,32.57
2019-04-30T09:01:23.240Z,31.85
2019-04-30T09:02:23.232Z,32.09
2019-04-30T09:03:23.223Z,31.00
2019-04-30T09:04:23.212Z,32.33
2019-04-30T09:05:23.203Z,34.22
2019-04-30T09:06:23.198Z,34.41
2019-04-30T09:07:23.184Z,34.46
2019-04-30T09:08:23.175Z,31.56
2019-04-30T09:09:23.175Z,31.77
2019-04-30T09:10:23.156Z,30.36
2019-04-30T09:11:30.207Z,30.35
2019-04-30T09:12:24.135Z,29.53
2019-04-30T09:13:23.126Z,31.64
2019-04-30T09:14:23.121Z,28.44
2019-04-30T09:15:23.109Z,30.15
2019-04-30T09:16:23.098Z,31.23
2019-04-30T09:17:23.091Z,28.32
2019-04-30T09:18:23.078Z,31.32
2019-04-30T09:19:23.068Z,28.51
2019-04-30T09:20:23.060Z,29.49
2019-04-30T09:21:23.050Z,28.11
2019-04-30T09:22:23.039Z,28.00
2019-04-30T09:23:23.031Z,27.39
2019-04-30T09:24:23.028Z,27.71
2019-04-30T09:25:23.019Z,27.72
2019-04-30T09:26:23.002Z,26.52
2019-04-30T09:27:22.991Z,28.35
2019-04-30T09:28:22.988Z,30.54
2019-04-30T09:29:22.973Z,27.83
2019-04-30T09:30:22.967Z,27.25
2019-04-30T09:31:22.962Z,28.67
2019-04-30T09:32:22.950Z,29.58
2019-04-30T09:33:22.935Z,28.65
2019-04-30T09:34:22.926Z,27.86
2019-04-30T09:35:22.915Z,31.44
2019-04-30T09:36:22.905Z,28.32
2019-04-30T09:37:22.895Z,29.61
2019-04-30T09:38:22.885Z,26.61
2019-04-30T09:39:23.247Z,25.52
2019-04-30T09:40:22.869Z,25.02
2019-04-30T09:41:22.857Z,26.61
2019-04-30T09:42:22.847Z,27.51
2019-04-30T09:43:22.842Z,27.51
2019-04-30T09:44:22.828Z,26.41
2019-04-30T09:45:22.823Z,26.43
2019-04-30T09:46:27.084Z,27.83
2019-04-30T09:47:22.801Z,27.91
2019-04-30T09:48:22.790Z,27.71
2019-04-30T09:49:22.780Z,25.91
2019-04-30T09:50:22.772Z,27.29
2019-04-30T09:51:24.641Z,27.28
2019-04-30T09:52:22.780Z,26.86
2019-04-30T09:53:22.864Z,25.45
2019-04-30T09:54:23.087Z,25.24
2019-04-30T09:55:22.725Z,23.85
2019-04-30T09:56:22.715Z,24.63
2019-04-30T09:57:22.717Z,24.25
2019-04-30T09:58:22.698Z,23.77
2019-04-30T09:59:22.688Z,27.37
2019-04-30T10:00:22.678Z,26.75
2019-04-30T10:01:22.672Z,25.05
2019-04-30T10:02:22.657Z,25.54
2019-04-30T10:03:23.453Z,25.77
2019-04-30T10:04:23.077Z,24.47
2019-04-30T10:05:22.634Z,24.76
2019-04-30T10:06:22.621Z,26.35
2019-04-30T10:07:22.613Z,23.88
2019-04-30T10:08:22.881Z,24.68
2019-04-30T10:09:22.593Z,25.09
2019-04-30T10:10:22.584Z,25.07
2019-04-30T10:11:22.575Z,24.47
2019-04-30T10:12:22.567Z,24.29
2019-04-30T10:13:22.556Z,25.48
2019-04-30T10:14:22.550Z,26.57
2019-04-30T10:15:22.537Z,27.36
2019-04-30T10:16:22.531Z,25.74
2019-04-30T10:17:22.520Z,29.34
2019-04-30T10:18:22.510Z,26.34
2019-04-30T10:19:22.500Z,24.26
2019-04-30T10:20:22.490Z,24.76
2019-04-30T10:21:22.481Z,25.27
2019-04-30T10:22:22.471Z,26.47
2019-04-30T10:23:22.461Z,24.61
2019-04-30T10:24:22.452Z,25.20
2019-04-30T10:25:22.444Z,24.23
2019-04-30T10:26:22.435Z,28.19
2019-04-30T10:27:22.425Z,26.37
2019-04-30T10:28:22.419Z,25.07
2019-04-30T10:29:22.407Z,26.18
2019-04-30T10:30:22.397Z,26.78
2019-04-30T10:31:22.391Z,26.17
2019-04-30T10:32:22.377Z,24.37
2019-04-30T10:33:22.370Z,23.87
2019-04-30T10:34:22.360Z,26.27
2019-04-30T10:35:22.355Z,25.97
2019-04-30T10:36:22.345Z,25.66
2019-04-30T10:37:22.356Z,25.67
2019-04-30T10:38:22.321Z,25.68
2019-04-30T10:39:22.329Z,26.86
2019-04-30T10:40:22.303Z,25.66
2019-04-30T10:41:22.319Z,24.93
2019-04-30T10:42:22.284Z,25.84
2019-04-30T10:43:22.279Z,23.63
2019-04-30T10:44:22.265Z,23.23
2019-04-30T10:45:22.258Z,26.56
2019-04-30T10:46:22.256Z,25.67
2019-04-30T10:47:22.236Z,24.57
2019-04-30T10:48:22.232Z,26.35
2019-04-30T10:49:22.249Z,24.95
2019-04-30T10:50:22.212Z,24.46
2019-04-30T10:51:22.203Z,24.07
2019-04-30T10:52:22.200Z,24.37
2019-04-30T10:53:22.183Z,23.66
2019-04-30T10:54:25.732Z,24.33
2019-04-30T10:55:22.162Z,25.73
2019-04-30T10:56:22.153Z,24.04
2019-04-30T10:57:22.146Z,24.37
2019-04-30T10:58:22.233Z,23.16
2019-04-30T10:59:22.125Z,25.43
2019-04-30T11:00:22.117Z,25.63
2019-04-30T11:01:22.108Z,24.93
2019-04-30T11:02:22.097Z,25.43
2019-04-30T11:03:23.084Z,23.74
2019-04-30T11:04:22.077Z,23.24
2019-04-30T11:05:22.069Z,24.43
2019-04-30T11:06:22.060Z,25.11
2019-04-30T11:07:22.058Z,23.12
2019-04-30T11:08:22.040Z,23.30
2019-04-30T11:09:22.040Z,24.20
2019-04-30T11:10:22.022Z,25.21
2019-04-30T11:11:22.014Z,23.22
2019-04-30T11:12:22.004Z,24.41
2019-04-30T11:13:21.996Z,22.92
2019-04-30T11:14:21.983Z,25.50
2019-04-30T11:15:21.976Z,23.30
2019-04-30T11:16:21.966Z,23.08
2019-04-30T11:17:22.129Z,22.77
2019-04-30T11:18:22.190Z,22.58
2019-04-30T11:19:22.114Z,21.89
2019-04-30T11:20:22.420Z,21.71
2019-04-30T11:21:22.104Z,23.32
2019-04-30T11:22:22.127Z,23.00
2019-04-30T11:23:22.111Z,21.69
2019-04-30T11:24:22.089Z,21.88
2019-04-30T11:25:22.334Z,23.18
2019-04-30T11:26:22.249Z,22.60
2019-04-30T11:27:22.570Z,22.50
2019-04-30T11:28:22.281Z,23.38
2019-04-30T11:29:23.205Z,22.70
2019-04-30T11:30:24.310Z,21.30
2019-04-30T11:31:22.031Z,21.11
2019-04-30T11:32:22.063Z,25.68
2019-04-30T11:33:22.010Z,24.66
2019-04-30T11:34:21.799Z,22.96
2019-04-30T11:35:21.789Z,22.38
2019-04-30T11:36:21.779Z,22.96
2019-04-30T11:37:21.772Z,23.55
2019-04-30T11:38:21.776Z,24.15
2019-04-30T11:39:21.752Z,21.75
2019-04-30T11:40:31.136Z,19.98
2019-04-30T11:41:30.985Z,24.08
2019-04-30T11:42:22.724Z,21.69
2019-04-30T11:43:21.714Z,23.19
2019-04-30T11:44:30.410Z,22.91
2019-04-30T11:45:22.692Z,21.72
2019-04-30T11:46:21.685Z,21.44
2019-04-30T11:47:21.676Z,24.24
2019-04-30T11:48:21.666Z,21.95
2019-04-30T11:49:21.658Z,24.36
2019-04-30T11:50:21.649Z,26.63
2019-04-30T11:51:21.639Z,23.44
2019-04-30T11:52:21.631Z,25.62
2019-04-30T11:53:27.813Z,22.72
2019-04-30T11:54:22.609Z,26.02
2019-04-30T11:55:21.601Z,26.53
2019-04-30T11:56:21.591Z,23.33
2019-04-30T11:57:21.581Z,23.52
2019-04-30T11:58:22.080Z,25.40
2019-04-30T11:59:21.562Z,21.60
2019-04-30T12:00:21.549Z,23.41
2019-04-30T12:01:21.543Z,24.91
2019-04-30T12:02:21.531Z,24.13
2019-04-30T12:03:21.526Z,23.15
2019-04-30T12:04:21.513Z,25.17
2019-04-30T12:05:21.505Z,29.17
2019-04-30T12:06:21.491Z,25.06
2019-04-30T12:07:21.483Z,23.85
2019-04-30T12:08:21.473Z,24.84
2019-04-30T12:09:21.465Z,23.44
2019-04-30T12:10:21.451Z,25.45
2019-04-30T12:11:21.443Z,25.54
2019-04-30T12:12:21.435Z,24.13
2019-04-30T12:13:21.425Z,25.72
2019-04-30T12:14:21.415Z,23.33
2019-04-30T12:15:21.404Z,23.32
2019-04-30T12:16:21.395Z,22.82
2019-04-30T12:17:21.383Z,26.81
2019-04-30T12:18:21.373Z,22.83
2019-04-30T12:19:21.362Z,22.64
2019-04-30T12:20:21.352Z,23.15
2019-04-30T12:21:21.341Z,24.74
2019-04-30T12:22:21.333Z,23.07
2019-04-30T12:23:21.322Z,25.56
2019-04-30T12:24:21.313Z,24.66
2019-04-30T12:25:21.302Z,26.34
2019-04-30T12:26:21.294Z,23.95
2019-04-30T12:27:21.280Z,23.05
2019-04-30T12:28:21.272Z,23.54
2019-04-30T12:29:21.261Z,24.73
2019-04-30T12:30:21.252Z,22.43
2019-04-30T12:31:21.242Z,23.43
2019-04-30T12:32:21.464Z,25.40
2019-04-30T12:33:21.221Z,25.50
2019-04-30T12:34:21.212Z,22.71
2019-04-30T12:35:21.202Z,22.82
2019-04-30T12:36:21.192Z,24.30
2019-04-30T12:37:21.184Z,23.60
2019-04-30T12:38:21.172Z,22.60
2019-04-30T12:39:21.164Z,24.70
2019-04-30T12:40:28.948Z,23.60
2019-04-30T12:41:22.140Z,23.80
2019-04-30T12:42:21.137Z,23.28
2019-04-30T12:43:21.123Z,22.89
2019-04-30T12:44:21.116Z,22.70
2019-04-30T12:45:21.100Z,22.71
2019-04-30T12:46:21.359Z,20.32
2019-04-30T12:47:22.011Z,26.21
2019-04-30T12:48:21.072Z,27.59
2019-04-30T12:49:21.060Z,24.50
2019-04-30T12:50:21.050Z,25.30
2019-04-30T12:51:21.039Z,22.80
2019-04-30T12:52:21.028Z,23.42